sensor_id;sensor_type;location;lat;lon;timestamp;P1;durP1;ratioP1;P2;durP2;ratioP2
28170;SDS011;15458;53.346;-1.688;2023-09-19T00:01:41;7.03;;;1.20;;
28170;SDS011;15458;53.346;-1.688;2023-09-19T00:04:09;9.27;;;1.50;;
28170;SDS011;15458;53.346;-1.688;2023-09-19T00:06:36;8.63;;;1.50;;
28170;SDS011;15458;53.346;-1.688;2023-09-19T00:09:02;9.70;;;1.40;;
28170;SDS011;15458;53.346;-1.688;2023-09-19T00:11:28;5.78;;;1.40;;
28170;SDS011;15458;53.346;-1.688;2023-09-19T00:13:54;5.25;;;1.10;;
28170;SDS011;15458;53.346;-1.688;2023-09-19T00:16:20;7.93;;;1.88;;
28170;SDS011;15458;53.346;-1.688;2023-09-19T00:18:46;7.00;;;1.60;;
28170;SDS011;15458;53.346;-1.688;2023-09-19T00:21:13;5.20;;;1.20;;
28170;SDS011;15458;53.346;-1.688;2023-09-19T00:23:40;6.05;;;1.92;;
28170;SDS011;15458;53.346;-1.688;2023-09-19T00:26:07;10.07;;;1.48;;
28170;SDS011;15458;53.346;-1.688;2023-09-19T00:28:32;10.38;;;1.20;;
28170;SDS011;15458;53.346;-1.688;2023-09-19T00:30:58;14.10;;;1.45;;
28170;SDS011;15458;53.346;-1.688;2023-09-19T00:33:27;8.52;;;1.92;;
28170;SDS011;15458;53.346;-1.688;2023-09-19T00:35:56;9.00;;;1.70;;
28170;SDS011;15458;53.346;-1.688;2023-09-19T00:38:27;8.27;;;1.40;;
28170;SDS011;15458;53.346;-1.688;2023-09-19T00:40:53;6.50;;;1.40;;
28170;SDS011;15458;53.346;-1.688;2023-09-19T00:43:20;9.18;;;1.60;;
28170;SDS011;15458;53.346;-1.688;2023-09-19T00:45:48;7.70;;;1.38;;
28170;SDS011;15458;53.346;-1.688;2023-09-19T00:48:16;10.20;;;1.70;;
28170;SDS011;15458;53.346;-1.688;2023-09-19T00:50:43;12.95;;;2.25;;
28170;SDS011;15458;53.346;-1.688;2023-09-19T00:53:12;8.27;;;1.52;;
28170;SDS011;15458;53.346;-1.688;2023-09-19T00:55:40;10.40;;;1.88;;
28170;SDS011;15458;53.346;-1.688;2023-09-19T00:58:07;8.27;;;1.50;;
28170;SDS011;15458;53.346;-1.688;2023-09-19T01:00:35;14.50;;;2.47;;
28170;SDS011;15458;53.346;-1.688;2023-09-19T01:03:01;12.10;;;2.92;;
28170;SDS011;15458;53.346;-1.688;2023-09-19T01:05:27;11.48;;;1.75;;
28170;SDS011;15458;53.346;-1.688;2023-09-19T01:07:53;10.90;;;1.58;;
28170;SDS011;15458;53.346;-1.688;2023-09-19T01:10:19;11.82;;;1.73;;
28170;SDS011;15458;53.346;-1.688;2023-09-19T01:18:16;10.30;;;1.70;;
28170;SDS011;15458;53.346;-1.688;2023-09-19T01:21:29;12.82;;;2.25;;
28170;SDS011;15458;53.346;-1.688;2023-09-19T01:27:12;11.18;;;1.80;;
28170;SDS011;15458;53.346;-1.688;2023-09-19T01:30:06;9.18;;;1.65;;
28170;SDS011;15458;53.346;-1.688;2023-09-19T01:32:36;13.55;;;2.05;;
28170;SDS011;15458;53.346;-1.688;2023-09-19T01:35:04;12.40;;;2.10;;
28170;SDS011;15458;53.346;-1.688;2023-09-19T01:37:30;10.95;;;1.50;;
28170;SDS011;15458;53.346;-1.688;2023-09-19T01:45:37;18.50;;;2.78;;
28170;SDS011;15458;53.346;-1.688;2023-09-19T01:48:25;10.98;;;1.92;;
28170;SDS011;15458;53.346;-1.688;2023-09-19T01:51:12;13.35;;;2.10;;
28170;SDS011;15458;53.346;-1.688;2023-09-19T01:53:51;12.70;;;2.88;;
28170;SDS011;15458;53.346;-1.688;2023-09-19T01:56:25;16.75;;;2.20;;
28170;SDS011;15458;53.346;-1.688;2023-09-19T01:59:16;16.83;;;2.13;;
28170;SDS011;15458;53.346;-1.688;2023-09-19T02:01:46;11.13;;;2.50;;
28170;SDS011;15458;53.346;-1.688;2023-09-19T02:04:14;20.08;;;2.65;;
28170;SDS011;15458;53.346;-1.688;2023-09-19T02:06:40;16.35;;;3.00;;
28170;SDS011;15458;53.346;-1.688;2023-09-19T02:09:07;14.35;;;2.20;;
28170;SDS011;15458;53.346;-1.688;2023-09-19T02:11:34;15.30;;;2.65;;
28170;SDS011;15458;53.346;-1.688;2023-09-19T02:14:00;12.45;;;1.98;;
28170;SDS011;15458;53.346;-1.688;2023-09-19T02:16:27;17.52;;;2.33;;
28170;SDS011;15458;53.346;-1.688;2023-09-19T02:18:54;16.15;;;2.08;;
28170;SDS011;15458;53.346;-1.688;2023-09-19T02:21:20;15.32;;;3.10;;
28170;SDS011;15458;53.346;-1.688;2023-09-19T02:23:47;15.90;;;2.58;;
28170;SDS011;15458;53.346;-1.688;2023-09-19T02:26:12;12.77;;;2.28;;
28170;SDS011;15458;53.346;-1.688;2023-09-19T02:28:39;21.95;;;5.18;;
28170;SDS011;15458;53.346;-1.688;2023-09-19T02:31:04;22.50;;;3.05;;
28170;SDS011;15458;53.346;-1.688;2023-09-19T02:33:30;23.83;;;2.20;;
28170;SDS011;15458;53.346;-1.688;2023-09-19T02:35:57;15.73;;;2.75;;
28170;SDS011;15458;53.346;-1.688;2023-09-19T02:38:24;17.13;;;2.65;;
28170;SDS011;15458;53.346;-1.688;2023-09-19T02:40:51;13.95;;;3.05;;
28170;SDS011;15458;53.346;-1.688;2023-09-19T02:43:17;12.02;;;2.17;;
28170;SDS011;15458;53.346;-1.688;2023-09-19T02:45:44;18.98;;;2.80;;
28170;SDS011;15458;53.346;-1.688;2023-09-19T02:48:11;14.77;;;2.33;;
28170;SDS011;15458;53.346;-1.688;2023-09-19T02:50:37;19.40;;;2.63;;
28170;SDS011;15458;53.346;-1.688;2023-09-19T02:53:05;11.65;;;2.33;;
28170;SDS011;15458;53.346;-1.688;2023-09-19T02:55:31;18.50;;;2.33;;
28170;SDS011;15458;53.346;-1.688;2023-09-19T02:57:57;13.95;;;2.35;;
28170;SDS011;15458;53.346;-1.688;2023-09-19T03:00:23;12.55;;;2.40;;
28170;SDS011;15458;53.346;-1.688;2023-09-19T03:05:15;15.25;;;2.00;;
28170;SDS011;15458;53.346;-1.688;2023-09-19T03:07:41;13.07;;;2.72;;
28170;SDS011;15458;53.346;-1.688;2023-09-19T03:10:08;12.23;;;1.80;;
28170;SDS011;15458;53.346;-1.688;2023-09-19T03:12:34;13.27;;;2.53;;
28170;SDS011;15458;53.346;-1.688;2023-09-19T03:15:02;14.43;;;3.25;;
28170;SDS011;15458;53.346;-1.688;2023-09-19T03:17:30;16.75;;;2.90;;
28170;SDS011;15458;53.346;-1.688;2023-09-19T03:19:55;19.63;;;2.50;;
28170;SDS011;15458;53.346;-1.688;2023-09-19T03:22:22;20.35;;;2.75;;
28170;SDS011;15458;53.346;-1.688;2023-09-19T03:24:49;17.27;;;3.03;;
28170;SDS011;15458;53.346;-1.688;2023-09-19T03:27:15;16.08;;;3.00;;
28170;SDS011;15458;53.346;-1.688;2023-09-19T03:29:41;13.35;;;2.60;;
28170;SDS011;15458;53.346;-1.688;2023-09-19T03:32:08;18.05;;;2.78;;
28170;SDS011;15458;53.346;-1.688;2023-09-19T03:34:39;20.52;;;3.00;;
28170;SDS011;15458;53.346;-1.688;2023-09-19T03:37:07;16.17;;;3.53;;
28170;SDS011;15458;53.346;-1.688;2023-09-19T03:39:32;18.65;;;2.53;;
28170;SDS011;15458;53.346;-1.688;2023-09-19T03:41:58;14.13;;;2.40;;
28170;SDS011;15458;53.346;-1.688;2023-09-19T03:44:24;16.35;;;2.80;;
28170;SDS011;15458;53.346;-1.688;2023-09-19T03:46:49;21.58;;;2.47;;
28170;SDS011;15458;53.346;-1.688;2023-09-19T03:49:15;11.38;;;2.20;;
28170;SDS011;15458;53.346;-1.688;2023-09-19T03:51:40;15.13;;;2.80;;
28170;SDS011;15458;53.346;-1.688;2023-09-19T03:54:07;17.83;;;2.55;;
28170;SDS011;15458;53.346;-1.688;2023-09-19T03:56:33;17.08;;;3.55;;
28170;SDS011;15458;53.346;-1.688;2023-09-19T03:59:00;15.82;;;2.22;;
28170;SDS011;15458;53.346;-1.688;2023-09-19T04:01:25;18.75;;;2.60;;
28170;SDS011;15458;53.346;-1.688;2023-09-19T04:03:56;17.08;;;3.15;;
28170;SDS011;15458;53.346;-1.688;2023-09-19T04:06:21;14.32;;;2.40;;
28170;SDS011;15458;53.346;-1.688;2023-09-19T04:08:47;10.13;;;1.83;;
28170;SDS011;15458;53.346;-1.688;2023-09-19T04:11:13;9.20;;;2.15;;
28170;SDS011;15458;53.346;-1.688;2023-09-19T04:13:40;13.80;;;2.38;;
28170;SDS011;15458;53.346;-1.688;2023-09-19T04:16:06;13.30;;;2.15;;
28170;SDS011;15458;53.346;-1.688;2023-09-19T04:18:35;14.30;;;2.55;;
28170;SDS011;15458;53.346;-1.688;2023-09-19T04:21:03;11.10;;;2.10;;
28170;SDS011;15458;53.346;-1.688;2023-09-19T04:23:30;14.75;;;3.13;;
28170;SDS011;15458;53.346;-1.688;2023-09-19T04:25:59;12.30;;;2.40;;
28170;SDS011;15458;53.346;-1.688;2023-09-19T04:28:25;15.15;;;2.63;;
28170;SDS011;15458;53.346;-1.688;2023-09-19T04:30:52;14.82;;;2.50;;
28170;SDS011;15458;53.346;-1.688;2023-09-19T04:33:18;13.88;;;2.80;;
28170;SDS011;15458;53.346;-1.688;2023-09-19T04:35:44;10.25;;;2.35;;
28170;SDS011;15458;53.346;-1.688;2023-09-19T04:38:10;16.42;;;2.88;;
28170;SDS011;15458;53.346;-1.688;2023-09-19T04:40:36;13.23;;;2.50;;
28170;SDS011;15458;53.346;-1.688;2023-09-19T04:43:04;11.38;;;2.25;;
28170;SDS011;15458;53.346;-1.688;2023-09-19T04:45:31;12.63;;;1.90;;
28170;SDS011;15458;53.346;-1.688;2023-09-19T04:47:56;11.15;;;2.30;;
28170;SDS011;15458;53.346;-1.688;2023-09-19T04:50:22;10.88;;;1.77;;
28170;SDS011;15458;53.346;-1.688;2023-09-19T04:52:49;9.73;;;2.05;;
28170;SDS011;15458;53.346;-1.688;2023-09-19T04:55:16;17.40;;;2.58;;
28170;SDS011;15458;53.346;-1.688;2023-09-19T04:57:46;12.20;;;2.20;;
28170;SDS011;15458;53.346;-1.688;2023-09-19T05:00:17;10.13;;;2.03;;
28170;SDS011;15458;53.346;-1.688;2023-09-19T05:02:50;11.65;;;2.10;;
28170;SDS011;15458;53.346;-1.688;2023-09-19T05:05:16;16.33;;;2.28;;
28170;SDS011;15458;53.346;-1.688;2023-09-19T05:07:44;12.40;;;1.85;;
28170;SDS011;15458;53.346;-1.688;2023-09-19T05:10:11;11.73;;;1.88;;
28170;SDS011;15458;53.346;-1.688;2023-09-19T05:12:37;19.33;;;3.15;;
28170;SDS011;15458;53.346;-1.688;2023-09-19T05:15:04;21.05;;;3.00;;
28170;SDS011;15458;53.346;-1.688;2023-09-19T05:17:32;17.15;;;2.20;;
28170;SDS011;15458;53.346;-1.688;2023-09-19T05:19:58;12.13;;;2.35;;
28170;SDS011;15458;53.346;-1.688;2023-09-19T05:22:28;12.93;;;2.13;;
28170;SDS011;15458;53.346;-1.688;2023-09-19T05:24:54;12.77;;;1.88;;
28170;SDS011;15458;53.346;-1.688;2023-09-19T05:27:20;13.07;;;1.92;;
28170;SDS011;15458;53.346;-1.688;2023-09-19T05:29:46;7.85;;;1.98;;
28170;SDS011;15458;53.346;-1.688;2023-09-19T05:32:12;9.55;;;2.15;;
28170;SDS011;15458;53.346;-1.688;2023-09-19T05:34:37;5.43;;;1.17;;
28170;SDS011;15458;53.346;-1.688;2023-09-19T05:37:04;6.00;;;1.90;;
28170;SDS011;15458;53.346;-1.688;2023-09-19T05:39:33;6.95;;;1.48;;
28170;SDS011;15458;53.346;-1.688;2023-09-19T05:41:59;6.03;;;1.33;;
28170;SDS011;15458;53.346;-1.688;2023-09-19T05:44:25;3.50;;;1.00;;
28170;SDS011;15458;53.346;-1.688;2023-09-19T05:46:51;7.97;;;1.15;;
28170;SDS011;15458;53.346;-1.688;2023-09-19T05:49:18;5.03;;;1.40;;
28170;SDS011;15458;53.346;-1.688;2023-09-19T05:51:46;7.88;;;2.42;;
28170;SDS011;15458;53.346;-1.688;2023-09-19T05:54:12;4.85;;;1.48;;
28170;SDS011;15458;53.346;-1.688;2023-09-19T05:56:38;6.10;;;1.65;;
28170;SDS011;15458;53.346;-1.688;2023-09-19T05:59:03;8.77;;;1.35;;
28170;SDS011;15458;53.346;-1.688;2023-09-19T06:01:30;11.05;;;1.88;;
28170;SDS011;15458;53.346;-1.688;2023-09-19T06:03:57;9.15;;;1.83;;
28170;SDS011;15458;53.346;-1.688;2023-09-19T06:06:25;6.75;;;2.00;;
28170;SDS011;15458;53.346;-1.688;2023-09-19T06:08:51;10.10;;;2.15;;
28170;SDS011;15458;53.346;-1.688;2023-09-19T06:11:17;7.05;;;1.80;;
28170;SDS011;15458;53.346;-1.688;2023-09-19T06:13:45;6.55;;;1.58;;
28170;SDS011;15458;53.346;-1.688;2023-09-19T06:16:12;5.07;;;1.42;;
28170;SDS011;15458;53.346;-1.688;2023-09-19T06:18:38;5.60;;;1.63;;
28170;SDS011;15458;53.346;-1.688;2023-09-19T06:21:04;4.70;;;1.13;;
28170;SDS011;15458;53.346;-1.688;2023-09-19T06:23:33;5.60;;;1.70;;
28170;SDS011;15458;53.346;-1.688;2023-09-19T06:26:00;4.68;;;1.50;;
28170;SDS011;15458;53.346;-1.688;2023-09-19T06:28:26;4.30;;;1.58;;
28170;SDS011;15458;53.346;-1.688;2023-09-19T06:30:53;5.32;;;1.55;;
28170;SDS011;15458;53.346;-1.688;2023-09-19T06:33:19;4.07;;;1.38;;
28170;SDS011;15458;53.346;-1.688;2023-09-19T06:35:46;6.32;;;1.75;;
28170;SDS011;15458;53.346;-1.688;2023-09-19T06:38:12;6.47;;;1.95;;
28170;SDS011;15458;53.346;-1.688;2023-09-19T06:40:40;8.13;;;1.40;;
28170;SDS011;15458;53.346;-1.688;2023-09-19T06:43:09;7.82;;;1.45;;
28170;SDS011;15458;53.346;-1.688;2023-09-19T06:45:35;7.65;;;2.05;;
28170;SDS011;15458;53.346;-1.688;2023-09-19T06:48:01;6.68;;;1.83;;
28170;SDS011;15458;53.346;-1.688;2023-09-19T06:50:28;6.82;;;1.50;;
28170;SDS011;15458;53.346;-1.688;2023-09-19T06:52:55;6.93;;;1.30;;
28170;SDS011;15458;53.346;-1.688;2023-09-19T06:55:24;7.30;;;1.98;;
28170;SDS011;15458;53.346;-1.688;2023-09-19T06:57:53;6.18;;;1.67;;
28170;SDS011;15458;53.346;-1.688;2023-09-19T07:00:19;4.63;;;1.80;;
28170;SDS011;15458;53.346;-1.688;2023-09-19T07:02:59;11.55;;;2.28;;
28170;SDS011;15458;53.346;-1.688;2023-09-19T07:05:29;9.82;;;2.10;;
28170;SDS011;15458;53.346;-1.688;2023-09-19T07:07:56;9.65;;;2.00;;
28170;SDS011;15458;53.346;-1.688;2023-09-19T07:10:26;13.53;;;2.37;;
28170;SDS011;15458;53.346;-1.688;2023-09-19T07:12:57;10.38;;;1.90;;
28170;SDS011;15458;53.346;-1.688;2023-09-19T07:15:24;10.40;;;2.47;;
28170;SDS011;15458;53.346;-1.688;2023-09-19T07:17:54;5.22;;;1.25;;
28170;SDS011;15458;53.346;-1.688;2023-09-19T07:20:22;6.35;;;1.60;;
28170;SDS011;15458;53.346;-1.688;2023-09-19T07:22:51;11.07;;;2.35;;
28170;SDS011;15458;53.346;-1.688;2023-09-19T07:25:17;10.02;;;1.70;;
28170;SDS011;15458;53.346;-1.688;2023-09-19T07:27:43;6.03;;;1.70;;
28170;SDS011;15458;53.346;-1.688;2023-09-19T07:30:09;6.85;;;2.05;;
28170;SDS011;15458;53.346;-1.688;2023-09-19T07:32:36;11.68;;;2.40;;
28170;SDS011;15458;53.346;-1.688;2023-09-19T07:35:02;8.23;;;2.33;;
28170;SDS011;15458;53.346;-1.688;2023-09-19T07:37:29;8.95;;;2.05;;
28170;SDS011;15458;53.346;-1.688;2023-09-19T07:39:58;11.95;;;2.55;;
28170;SDS011;15458;53.346;-1.688;2023-09-19T07:42:34;15.50;;;2.10;;
28170;SDS011;15458;53.346;-1.688;2023-09-19T07:45:03;10.02;;;2.15;;
28170;SDS011;15458;53.346;-1.688;2023-09-19T07:47:30;8.55;;;2.17;;
28170;SDS011;15458;53.346;-1.688;2023-09-19T07:49:57;8.10;;;1.40;;
28170;SDS011;15458;53.346;-1.688;2023-09-19T07:52:23;8.80;;;1.73;;
28170;SDS011;15458;53.346;-1.688;2023-09-19T07:54:49;6.55;;;1.75;;
28170;SDS011;15458;53.346;-1.688;2023-09-19T07:57:15;6.03;;;1.38;;
28170;SDS011;15458;53.346;-1.688;2023-09-19T07:59:41;6.35;;;1.85;;
28170;SDS011;15458;53.346;-1.688;2023-09-19T08:02:08;7.22;;;1.92;;
28170;SDS011;15458;53.346;-1.688;2023-09-19T08:04:40;7.25;;;2.22;;
28170;SDS011;15458;53.346;-1.688;2023-09-19T08:07:12;7.55;;;2.22;;
28170;SDS011;15458;53.346;-1.688;2023-09-19T08:09:38;5.00;;;1.98;;
28170;SDS011;15458;53.346;-1.688;2023-09-19T08:12:05;5.35;;;1.40;;
28170;SDS011;15458;53.346;-1.688;2023-09-19T08:14:33;4.80;;;1.60;;
28170;SDS011;15458;53.346;-1.688;2023-09-19T08:16:59;6.78;;;1.70;;
28170;SDS011;15458;53.346;-1.688;2023-09-19T08:19:25;7.00;;;1.85;;
28170;SDS011;15458;53.346;-1.688;2023-09-19T08:24:28;5.18;;;2.67;;
28170;SDS011;15458;53.346;-1.688;2023-09-19T08:26:54;4.97;;;1.27;;
28170;SDS011;15458;53.346;-1.688;2023-09-19T08:29:21;4.30;;;1.00;;
28170;SDS011;15458;53.346;-1.688;2023-09-19T08:31:53;4.72;;;1.08;;
28170;SDS011;15458;53.346;-1.688;2023-09-19T08:34:19;4.28;;;1.00;;
28170;SDS011;15458;53.346;-1.688;2023-09-19T08:36:46;4.30;;;1.20;;
28170;SDS011;15458;53.346;-1.688;2023-09-19T08:39:13;2.03;;;0.95;;
28170;SDS011;15458;53.346;-1.688;2023-09-19T08:41:39;2.55;;;1.10;;
28170;SDS011;15458;53.346;-1.688;2023-09-19T08:44:09;2.88;;;0.68;;
28170;SDS011;15458;53.346;-1.688;2023-09-19T08:46:35;4.07;;;0.80;;
28170;SDS011;15458;53.346;-1.688;2023-09-19T08:49:10;1.17;;;0.40;;
28170;SDS011;15458;53.346;-1.688;2023-09-19T08:51:54;1.65;;;0.85;;
28170;SDS011;15458;53.346;-1.688;2023-09-19T08:54:32;2.40;;;0.60;;
28170;SDS011;15458;53.346;-1.688;2023-09-19T08:57:06;5.88;;;1.13;;
28170;SDS011;15458;53.346;-1.688;2023-09-19T08:59:39;2.60;;;0.80;;
28170;SDS011;15458;53.346;-1.688;2023-09-19T09:02:12;2.05;;;0.88;;
28170;SDS011;15458;53.346;-1.688;2023-09-19T09:04:40;5.30;;;1.27;;
28170;SDS011;15458;53.346;-1.688;2023-09-19T09:07:10;2.85;;;0.77;;
28170;SDS011;15458;53.346;-1.688;2023-09-19T09:09:37;1.30;;;0.85;;
28170;SDS011;15458;53.346;-1.688;2023-09-19T09:12:07;8.65;;;1.42;;
28170;SDS011;15458;53.346;-1.688;2023-09-19T09:14:37;2.13;;;1.08;;
28170;SDS011;15458;53.346;-1.688;2023-09-19T09:17:03;4.38;;;1.00;;
28170;SDS011;15458;53.346;-1.688;2023-09-19T09:19:30;2.78;;;1.00;;
28170;SDS011;15458;53.346;-1.688;2023-09-19T09:22:05;0.85;;;0.65;;
28170;SDS011;15458;53.346;-1.688;2023-09-19T09:24:34;1.40;;;0.70;;
28170;SDS011;15458;53.346;-1.688;2023-09-19T09:27:06;0.70;;;0.55;;
28170;SDS011;15458;53.346;-1.688;2023-09-19T09:29:45;1.25;;;0.60;;
28170;SDS011;15458;53.346;-1.688;2023-09-19T09:34:54;2.17;;;0.52;;
28170;SDS011;15458;53.346;-1.688;2023-09-19T09:37:21;2.83;;;0.50;;
28170;SDS011;15458;53.346;-1.688;2023-09-19T09:39:53;0.30;;;0.30;;
28170;SDS011;15458;53.346;-1.688;2023-09-19T09:42:31;1.27;;;0.38;;
28170;SDS011;15458;53.346;-1.688;2023-09-19T09:45:19;1.00;;;0.30;;
28170;SDS011;15458;53.346;-1.688;2023-09-19T09:47:58;1.27;;;0.40;;
28170;SDS011;15458;53.346;-1.688;2023-09-19T09:50:25;1.08;;;0.30;;
28170;SDS011;15458;53.346;-1.688;2023-09-19T09:53:05;0.10;;;0.05;;
28170;SDS011;15458;53.346;-1.688;2023-09-19T09:56:02;3.65;;;0.10;;
28170;SDS011;15458;53.346;-1.688;2023-09-19T09:58:32;0.80;;;0.20;;
28170;SDS011;15458;53.346;-1.688;2023-09-19T10:01:00;1.75;;;0.20;;
28170;SDS011;15458;53.346;-1.688;2023-09-19T10:03:45;2.50;;;0.10;;
28170;SDS011;15458;53.346;-1.688;2023-09-19T10:06:16;0.65;;;0.10;;
28170;SDS011;15458;53.346;-1.688;2023-09-19T10:08:58;0.40;;;0.10;;
28170;SDS011;15458;53.346;-1.688;2023-09-19T10:11:49;0.00;;;0.00;;
28170;SDS011;15458;53.346;-1.688;2023-09-19T10:14:30;1.42;;;0.08;;
28170;SDS011;15458;53.346;-1.688;2023-09-19T10:17:00;2.25;;;0.20;;
28170;SDS011;15458;53.346;-1.688;2023-09-19T10:22:29;2.47;;;0.28;;
28170;SDS011;15458;53.346;-1.688;2023-09-19T10:24:57;0.08;;;0.00;;
28170;SDS011;15458;53.346;-1.688;2023-09-19T10:27:25;0.85;;;0.10;;
28170;SDS011;15458;53.346;-1.688;2023-09-19T10:29:51;0.10;;;0.00;;
28170;SDS011;15458;53.346;-1.688;2023-09-19T10:34:48;0.10;;;0.10;;
28170;SDS011;15458;53.346;-1.688;2023-09-19T10:37:16;2.38;;;0.20;;
28170;SDS011;15458;53.346;-1.688;2023-09-19T10:39:46;0.00;;;0.00;;
28170;SDS011;15458;53.346;-1.688;2023-09-19T10:42:19;4.00;;;0.20;;
28170;SDS011;15458;53.346;-1.688;2023-09-19T10:44:50;0.22;;;0.22;;
28170;SDS011;15458;53.346;-1.688;2023-09-19T10:47:21;1.85;;;0.20;;
28170;SDS011;15458;53.346;-1.688;2023-09-19T10:49:49;0.40;;;0.13;;
28170;SDS011;15458;53.346;-1.688;2023-09-19T10:52:15;0.88;;;0.10;;
28170;SDS011;15458;53.346;-1.688;2023-09-19T10:54:46;0.73;;;0.10;;
28170;SDS011;15458;53.346;-1.688;2023-09-19T10:57:21;1.83;;;0.40;;
28170;SDS011;15458;53.346;-1.688;2023-09-19T11:00:05;1.33;;;0.10;;
28170;SDS011;15458;53.346;-1.688;2023-09-19T11:05:39;0.00;;;0.00;;
28170;SDS011;15458;53.346;-1.688;2023-09-19T11:08:09;0.45;;;0.28;;
28170;SDS011;15458;53.346;-1.688;2023-09-19T11:10:50;0.32;;;0.28;;
28170;SDS011;15458;53.346;-1.688;2023-09-19T11:13:31;4.95;;;0.30;;
28170;SDS011;15458;53.346;-1.688;2023-09-19T11:26:50;0.77;;;0.20;;
28170;SDS011;15458;53.346;-1.688;2023-09-19T11:29:25;0.40;;;0.10;;
28170;SDS011;15458;53.346;-1.688;2023-09-19T11:31:55;1.48;;;0.65;;
28170;SDS011;15458;53.346;-1.688;2023-09-19T11:37:03;0.68;;;0.20;;
28170;SDS011;15458;53.346;-1.688;2023-09-19T11:39:36;0.38;;;0.20;;
28170;SDS011;15458;53.346;-1.688;2023-09-19T11:42:40;0.47;;;0.20;;
28170;SDS011;15458;53.346;-1.688;2023-09-19T11:45:48;0.82;;;0.15;;
28170;SDS011;15458;53.346;-1.688;2023-09-19T11:48:22;0.10;;;0.10;;
28170;SDS011;15458;53.346;-1.688;2023-09-19T11:50:52;0.10;;;0.10;;
28170;SDS011;15458;53.346;-1.688;2023-09-19T11:53:18;0.63;;;0.10;;
28170;SDS011;15458;53.346;-1.688;2023-09-19T11:55:46;0.05;;;0.05;;
28170;SDS011;15458;53.346;-1.688;2023-09-19T11:58:14;0.95;;;0.10;;
28170;SDS011;15458;53.346;-1.688;2023-09-19T12:00:42;1.98;;;0.28;;
28170;SDS011;15458;53.346;-1.688;2023-09-19T12:03:10;1.25;;;0.10;;
28170;SDS011;15458;53.346;-1.688;2023-09-19T12:05:37;0.43;;;0.17;;
28170;SDS011;15458;53.346;-1.688;2023-09-19T12:08:09;0.95;;;0.20;;
28170;SDS011;15458;53.346;-1.688;2023-09-19T12:10:45;0.00;;;0.00;;
28170;SDS011;15458;53.346;-1.688;2023-09-19T12:13:15;2.38;;;0.20;;
28170;SDS011;15458;53.346;-1.688;2023-09-19T12:15:42;0.20;;;0.10;;
28170;SDS011;15458;53.346;-1.688;2023-09-19T12:18:28;0.52;;;0.10;;
28170;SDS011;15458;53.346;-1.688;2023-09-19T12:20:55;0.00;;;0.00;;
28170;SDS011;15458;53.346;-1.688;2023-09-19T12:23:22;0.30;;;0.20;;
28170;SDS011;15458;53.346;-1.688;2023-09-19T12:25:48;0.08;;;0.00;;
28170;SDS011;15458;53.346;-1.688;2023-09-19T12:28:18;0.20;;;0.08;;
28170;SDS011;15458;53.346;-1.688;2023-09-19T12:30:48;0.80;;;0.17;;
28170;SDS011;15458;53.346;-1.688;2023-09-19T12:33:18;0.10;;;0.10;;
28170;SDS011;15458;53.346;-1.688;2023-09-19T12:35:51;0.10;;;0.10;;
28170;SDS011;15458;53.346;-1.688;2023-09-19T12:38:28;0.30;;;0.10;;
28170;SDS011;15458;53.346;-1.688;2023-09-19T12:40:57;1.65;;;0.20;;
28170;SDS011;15458;53.346;-1.688;2023-09-19T12:43:28;1.00;;;0.20;;
28170;SDS011;15458;53.346;-1.688;2023-09-19T12:45:57;2.83;;;0.22;;
28170;SDS011;15458;53.346;-1.688;2023-09-19T12:48:25;3.45;;;0.40;;
28170;SDS011;15458;53.346;-1.688;2023-09-19T12:53:35;0.90;;;0.20;;
28170;SDS011;15458;53.346;-1.688;2023-09-19T12:56:07;0.10;;;0.10;;
28170;SDS011;15458;53.346;-1.688;2023-09-19T12:58:47;0.95;;;0.47;;
28170;SDS011;15458;53.346;-1.688;2023-09-19T13:01:16;0.52;;;0.20;;
28170;SDS011;15458;53.346;-1.688;2023-09-19T13:03:42;1.50;;;0.30;;
28170;SDS011;15458;53.346;-1.688;2023-09-19T13:06:07;0.90;;;0.20;;
28170;SDS011;15458;53.346;-1.688;2023-09-19T13:08:35;0.47;;;0.32;;
28170;SDS011;15458;53.346;-1.688;2023-09-19T13:13:32;1.58;;;0.40;;
28170;SDS011;15458;53.346;-1.688;2023-09-19T13:16:00;4.40;;;0.30;;
28170;SDS011;15458;53.346;-1.688;2023-09-19T13:18:27;0.60;;;0.30;;
28170;SDS011;15458;53.346;-1.688;2023-09-19T13:21:10;1.17;;;0.25;;
28170;SDS011;15458;53.346;-1.688;2023-09-19T13:23:51;2.60;;;0.45;;
28170;SDS011;15458;53.346;-1.688;2023-09-19T13:26:19;2.80;;;0.47;;
28170;SDS011;15458;53.346;-1.688;2023-09-19T13:28:45;3.40;;;0.65;;
28170;SDS011;15458;53.346;-1.688;2023-09-19T13:31:13;5.15;;;2.63;;
28170;SDS011;15458;53.346;-1.688;2023-09-19T13:33:48;3.72;;;0.88;;
28170;SDS011;15458;53.346;-1.688;2023-09-19T13:36:14;3.30;;;0.73;;
28170;SDS011;15458;53.346;-1.688;2023-09-19T13:38:40;4.20;;;0.45;;
28170;SDS011;15458;53.346;-1.688;2023-09-19T13:41:09;3.13;;;0.85;;
28170;SDS011;15458;53.346;-1.688;2023-09-19T13:43:36;3.17;;;0.80;;
28170;SDS011;15458;53.346;-1.688;2023-09-19T13:46:02;4.35;;;0.98;;
28170;SDS011;15458;53.346;-1.688;2023-09-19T13:48:28;4.35;;;0.93;;
28170;SDS011;15458;53.346;-1.688;2023-09-19T13:50:55;2.85;;;0.80;;
28170;SDS011;15458;53.346;-1.688;2023-09-19T13:53:21;1.17;;;0.50;;
28170;SDS011;15458;53.346;-1.688;2023-09-19T13:55:47;3.35;;;0.65;;
28170;SDS011;15458;53.346;-1.688;2023-09-19T13:58:16;4.75;;;1.20;;
28170;SDS011;15458;53.346;-1.688;2023-09-19T14:00:41;4.85;;;0.88;;
28170;SDS011;15458;53.346;-1.688;2023-09-19T14:03:08;5.32;;;1.42;;
28170;SDS011;15458;53.346;-1.688;2023-09-19T14:05:34;4.40;;;0.95;;
28170;SDS011;15458;53.346;-1.688;2023-09-19T14:08:00;4.60;;;0.70;;
28170;SDS011;15458;53.346;-1.688;2023-09-19T14:10:28;6.25;;;1.00;;
28170;SDS011;15458;53.346;-1.688;2023-09-19T14:12:56;1.88;;;0.70;;
28170;SDS011;15458;53.346;-1.688;2023-09-19T14:15:23;3.65;;;0.80;;
28170;SDS011;15458;53.346;-1.688;2023-09-19T14:17:54;8.18;;;1.00;;
28170;SDS011;15458;53.346;-1.688;2023-09-19T14:20:21;8.57;;;1.23;;
28170;SDS011;15458;53.346;-1.688;2023-09-19T14:22:48;4.40;;;1.05;;
28170;SDS011;15458;53.346;-1.688;2023-09-19T14:25:13;5.65;;;1.27;;
28170;SDS011;15458;53.346;-1.688;2023-09-19T14:27:39;4.40;;;1.23;;
28170;SDS011;15458;53.346;-1.688;2023-09-19T14:30:06;9.45;;;1.27;;
28170;SDS011;15458;53.346;-1.688;2023-09-19T14:32:32;5.68;;;1.10;;
28170;SDS011;15458;53.346;-1.688;2023-09-19T14:34:58;12.23;;;1.80;;
28170;SDS011;15458;53.346;-1.688;2023-09-19T14:37:24;8.73;;;1.83;;
28170;SDS011;15458;53.346;-1.688;2023-09-19T14:39:50;11.35;;;2.05;;
28170;SDS011;15458;53.346;-1.688;2023-09-19T14:42:16;8.57;;;1.30;;
28170;SDS011;15458;53.346;-1.688;2023-09-19T14:44:42;10.57;;;2.10;;
28170;SDS011;15458;53.346;-1.688;2023-09-19T14:47:08;6.10;;;1.60;;
28170;SDS011;15458;53.346;-1.688;2023-09-19T14:49:34;11.88;;;1.65;;
28170;SDS011;15458;53.346;-1.688;2023-09-19T14:52:03;12.23;;;2.17;;
28170;SDS011;15458;53.346;-1.688;2023-09-19T14:54:29;10.05;;;1.92;;
28170;SDS011;15458;53.346;-1.688;2023-09-19T14:56:55;8.45;;;1.88;;
28170;SDS011;15458;53.346;-1.688;2023-09-19T14:59:30;8.57;;;1.83;;
28170;SDS011;15458;53.346;-1.688;2023-09-19T15:01:57;8.63;;;1.73;;
28170;SDS011;15458;53.346;-1.688;2023-09-19T15:04:23;9.43;;;1.80;;
28170;SDS011;15458;53.346;-1.688;2023-09-19T15:06:49;12.90;;;2.15;;
28170;SDS011;15458;53.346;-1.688;2023-09-19T15:09:16;14.95;;;2.95;;
28170;SDS011;15458;53.346;-1.688;2023-09-19T15:11:44;15.38;;;2.53;;
28170;SDS011;15458;53.346;-1.688;2023-09-19T15:14:09;13.82;;;2.50;;
28170;SDS011;15458;53.346;-1.688;2023-09-19T15:16:35;12.07;;;2.28;;
28170;SDS011;15458;53.346;-1.688;2023-09-19T15:19:01;11.43;;;2.28;;
28170;SDS011;15458;53.346;-1.688;2023-09-19T15:21:26;12.85;;;2.58;;
28170;SDS011;15458;53.346;-1.688;2023-09-19T15:23:52;13.07;;;1.95;;
28170;SDS011;15458;53.346;-1.688;2023-09-19T15:26:18;10.18;;;1.90;;
28170;SDS011;15458;53.346;-1.688;2023-09-19T15:28:45;10.70;;;2.45;;